Terminal Aerodrome Forecast
Issued by NWS Cleveland, OH

Home | Current Version | Previous Version | Graphics & Text | Print | Product List | Glossary On
Versions: 1 2 3 4 5 6 7 8 9 10 11 12 13 14 15 16 17 18 19 20
000
FTUS41 KCLE 192340
TAFERI
TAF
KERI 192340Z 2000/2024 19010KT 5SM -SHRA SCT025 OVC040
      TEMPO 2001/2003 3SM -TSRA BKN015CB OVC025
     FM200300 21010KT P6SM VCSH BKN025 OVC035
     FM200600 27010KT P6SM BKN008
     FM201800 29006KT P6SM BKN035
     FM202100 28006KT P6SM FEW040=

USA.gov is the U.S. government's official web portal to all federal, state and local government web resources and services.